createdAt,value
2023-04-26T00:12:18.548Z,11.31
2023-04-26T00:32:18.578Z,11.31
2023-04-26T00:52:18.574Z,11.43
2023-04-26T01:12:18.531Z,11.18
2023-04-26T01:32:18.557Z,11.06
2023-04-26T01:52:18.525Z,11.18
2023-04-26T02:12:18.527Z,11.18
2023-04-26T02:32:18.618Z,11.12
2023-04-26T02:52:18.528Z,11.18
2023-04-26T03:12:18.555Z,11.25
2023-04-26T03:32:18.519Z,11.18
2023-04-26T03:52:18.509Z,11.25
2023-04-26T04:12:18.498Z,11.12
2023-04-26T04:32:18.521Z,11.12
2023-04-26T04:52:18.495Z,11.06
2023-04-26T05:12:18.514Z,11.06
2023-04-26T05:32:18.628Z,11.12
2023-04-26T05:52:18.499Z,11.18
2023-04-26T06:12:18.411Z,11.06
2023-04-26T06:32:18.400Z,11.18
2023-04-26T06:52:18.407Z,11.00
2023-04-26T07:12:18.382Z,11.12
2023-04-26T07:32:18.464Z,11.12
2023-04-26T07:52:18.434Z,11.25
2023-04-26T08:12:18.385Z,11.31
2023-04-26T08:32:18.415Z,11.31
2023-04-26T08:52:18.409Z,11.18
2023-04-26T09:12:18.304Z,11.18
2023-04-26T09:32:18.316Z,11.50
2023-04-26T09:52:18.445Z,11.43
2023-04-26T10:12:18.462Z,11.50
2023-04-26T10:32:18.328Z,11.37
2023-04-26T10:52:18.319Z,11.43
2023-04-26T11:12:18.212Z,11.43
2023-04-26T11:32:18.289Z,11.62
2023-04-26T11:52:18.385Z,11.87
2023-04-26T12:12:18.424Z,11.81
2023-04-26T12:32:18.269Z,11.93
2023-04-26T12:52:18.141Z,11.87
2023-04-26T13:12:18.143Z,11.87
2023-04-26T13:32:18.162Z,12.18
2023-04-26T13:52:18.152Z,12.00
2023-04-26T14:12:18.159Z,12.00
2023-04-26T14:32:18.127Z,11.87
2023-04-26T14:52:18.074Z,12.00
2023-04-26T15:12:18.098Z,12.12
2023-04-26T15:32:18.079Z,12.00
2023-04-26T15:52:17.986Z,11.93
2023-04-26T16:12:18.016Z,12.00
2023-04-26T16:32:17.990Z,12.06
2023-04-26T16:52:18.107Z,12.18
2023-04-26T17:12:18.018Z,12.06
2023-04-26T17:32:18.043Z,12.12
2023-04-26T17:52:17.886Z,12.06
2023-04-26T18:12:17.891Z,12.00
2023-04-26T18:32:17.927Z,11.81
2023-04-26T18:52:17.936Z,12.00
2023-04-26T19:12:17.906Z,11.81
2023-04-26T19:32:17.926Z,11.81
2023-04-26T19:52:17.956Z,11.75
2023-04-26T20:12:17.830Z,11.75
2023-04-26T20:32:17.833Z,11.75
2023-04-26T20:52:17.851Z,11.56
2023-04-26T21:12:17.873Z,11.68
2023-04-26T21:32:17.857Z,11.62
2023-04-26T21:52:17.857Z,11.62
2023-04-26T22:12:17.853Z,11.56
2023-04-26T22:32:17.893Z,11.75
2023-04-26T22:52:17.905Z,11.37
2023-04-26T23:32:17.761Z,11.31
2023-04-26T23:52:17.748Z,11.43
